createdAt,value
2022-07-25T00:01:11.907Z,68.85
2022-07-25T00:03:39.151Z,69.40
2022-07-25T00:06:06.798Z,69.19
2022-07-25T00:08:40.067Z,68.93
2022-07-25T00:11:06.641Z,69.13
2022-07-25T00:13:33.223Z,69.01
2022-07-25T00:15:59.827Z,68.02
2022-07-25T00:18:26.390Z,69.14
2022-07-25T00:20:52.954Z,68.42
2022-07-25T00:23:19.472Z,68.18
2022-07-25T00:25:45.945Z,68.11
2022-07-25T00:28:12.926Z,68.24
2022-07-25T00:30:39.409Z,67.56
2022-07-25T00:33:06.080Z,68.50
2022-07-25T00:35:32.717Z,67.77
2022-07-25T00:37:59.213Z,68.26
2022-07-25T00:40:25.764Z,68.09
2022-07-25T00:42:52.355Z,68.20
2022-07-25T00:45:18.856Z,68.13
2022-07-25T00:47:45.332Z,68.09
2022-07-25T00:50:11.889Z,67.84
2022-07-25T00:52:38.588Z,68.04
2022-07-25T00:55:05.964Z,67.88
2022-07-25T00:57:32.462Z,67.80
2022-07-25T00:59:59.022Z,67.84
2022-07-25T01:02:25.580Z,67.67
2022-07-25T01:04:52.080Z,67.82
2022-07-25T01:07:18.597Z,67.54
2022-07-25T01:09:45.742Z,67.58
2022-07-25T01:12:12.259Z,67.44
2022-07-25T01:14:39.126Z,67.47
2022-07-25T01:17:05.697Z,67.61
2022-07-25T01:19:32.309Z,68.27
2022-07-25T01:21:58.942Z,68.39
2022-07-25T01:24:25.539Z,68.33
2022-07-25T01:26:52.206Z,68.88
2022-07-25T01:29:18.880Z,68.84
2022-07-25T01:31:45.351Z,68.85
2022-07-25T01:34:12.101Z,68.30
2022-07-25T01:36:38.664Z,68.16
2022-07-25T01:39:05.170Z,67.74
2022-07-25T01:41:31.651Z,67.49
2022-07-25T01:43:58.255Z,67.31
2022-07-25T01:46:24.808Z,67.14
2022-07-25T01:48:51.354Z,67.92
2022-07-25T01:51:20.579Z,68.09
2022-07-25T01:53:47.841Z,68.67
2022-07-25T01:56:14.879Z,68.86
2022-07-25T01:58:41.387Z,68.93
2022-07-25T02:01:07.951Z,69.19
2022-07-25T02:03:34.571Z,69.21
2022-07-25T02:06:04.497Z,69.23
2022-07-25T02:08:31.537Z,69.23
2022-07-25T02:10:58.963Z,70.04
2022-07-25T02:13:27.197Z,70.91
2022-07-25T02:15:53.934Z,70.76
2022-07-25T02:18:20.539Z,70.89
2022-07-25T02:20:47.576Z,70.53
2022-07-25T02:23:14.114Z,70.47
2022-07-25T02:25:40.665Z,71.37
2022-07-25T02:28:07.194Z,71.57
2022-07-25T02:30:37.263Z,71.72
2022-07-25T02:33:03.912Z,71.29
2022-07-25T02:35:30.468Z,71.46
2022-07-25T02:37:56.972Z,71.56
2022-07-25T02:40:23.516Z,71.78
2022-07-25T02:42:50.005Z,71.48
2022-07-25T02:45:16.642Z,71.30
2022-07-25T02:47:43.147Z,71.14
2022-07-25T02:50:09.942Z,70.58
2022-07-25T02:52:41.582Z,70.01
2022-07-25T02:55:09.896Z,69.39
2022-07-25T02:57:36.683Z,68.78
2022-07-25T03:00:06.178Z,68.40
2022-07-25T03:02:32.691Z,68.67
2022-07-25T03:04:59.228Z,68.90
2022-07-25T03:07:25.777Z,69.55
2022-07-25T03:09:52.351Z,69.37
2022-07-25T03:12:18.925Z,69.34
2022-07-25T03:14:45.402Z,69.53
2022-07-25T03:17:12.020Z,69.59
2022-07-25T03:19:38.628Z,69.59
2022-07-25T03:22:05.214Z,69.27
2022-07-25T03:24:31.787Z,69.68
2022-07-25T03:26:58.333Z,69.87
2022-07-25T03:29:25.023Z,70.03
2022-07-25T03:31:51.541Z,70.35
2022-07-25T03:34:18.114Z,69.55
2022-07-25T03:36:44.624Z,69.45
2022-07-25T03:39:11.143Z,69.36
2022-07-25T03:41:37.628Z,69.29
2022-07-25T03:44:04.748Z,69.06
2022-07-25T03:46:31.538Z,69.09
2022-07-25T03:48:58.265Z,68.63
2022-07-25T03:51:24.824Z,68.32
2022-07-25T03:54:03.399Z,68.62
2022-07-25T03:56:43.231Z,68.21
2022-07-25T03:59:12.283Z,68.11
2022-07-25T04:01:38.930Z,67.88
2022-07-25T04:04:05.675Z,67.42
2022-07-25T04:06:32.608Z,66.86
2022-07-25T04:08:59.392Z,66.44
2022-07-25T04:11:25.953Z,66.87
2022-07-25T04:13:52.492Z,67.34
2022-07-25T04:16:22.421Z,67.47
2022-07-25T04:18:50.634Z,67.27
2022-07-25T04:21:18.315Z,67.33
2022-07-25T04:23:44.889Z,67.21
2022-07-25T04:26:11.457Z,67.18
2022-07-25T04:28:37.910Z,67.02
2022-07-25T04:31:04.657Z,66.95
2022-07-25T04:33:31.130Z,67.10
2022-07-25T04:35:57.620Z,66.85
2022-07-25T04:38:24.098Z,66.51
2022-07-25T04:40:50.645Z,65.88
2022-07-25T04:43:17.147Z,66.00
2022-07-25T04:45:43.820Z,65.52
2022-07-25T04:48:10.423Z,65.27
2022-07-25T04:50:37.074Z,64.68
2022-07-25T04:53:04.313Z,64.55
2022-07-25T04:55:32.350Z,64.24
2022-07-25T04:58:00.198Z,64.19
2022-07-25T05:00:26.977Z,63.74
2022-07-25T05:02:53.638Z,63.54
2022-07-25T05:05:21.696Z,63.42
2022-07-25T05:07:49.879Z,63.31
2022-07-25T05:10:16.644Z,63.01
2022-07-25T05:12:43.152Z,62.58
2022-07-25T05:15:10.109Z,61.74
2022-07-25T05:17:36.592Z,61.33
2022-07-25T05:20:03.581Z,60.88
2022-07-25T05:22:30.319Z,60.51
2022-07-25T05:24:56.852Z,60.16
2022-07-25T05:27:23.342Z,60.32
2022-07-25T05:29:49.883Z,60.86
2022-07-25T05:32:16.393Z,61.02
2022-07-25T05:34:42.894Z,60.39
2022-07-25T05:37:09.360Z,60.22
2022-07-25T05:39:37.412Z,60.22
2022-07-25T05:42:04.058Z,59.89
2022-07-25T05:44:30.582Z,59.51
2022-07-25T05:46:57.102Z,58.97
2022-07-25T05:49:23.643Z,58.48
2022-07-25T05:51:50.441Z,57.80
2022-07-25T05:54:16.958Z,57.93
2022-07-25T05:56:43.522Z,58.35
2022-07-25T05:59:09.991Z,56.91
2022-07-25T06:01:36.704Z,56.69
2022-07-25T06:04:03.522Z,56.01
2022-07-25T06:06:32.636Z,55.27
2022-07-25T06:08:59.137Z,54.72
2022-07-25T06:11:30.934Z,54.00
2022-07-25T06:13:57.748Z,53.48
2022-07-25T06:16:24.943Z,53.27
2022-07-25T06:18:51.533Z,52.77
2022-07-25T06:21:17.997Z,53.14
2022-07-25T06:23:44.542Z,53.40
2022-07-25T06:26:11.309Z,53.03
2022-07-25T06:28:38.526Z,52.75
2022-07-25T06:31:05.312Z,52.52
2022-07-25T06:33:31.890Z,52.07
2022-07-25T06:35:58.382Z,51.95
2022-07-25T06:38:24.880Z,51.42
2022-07-25T06:40:51.405Z,52.00
2022-07-25T06:43:17.994Z,51.84
2022-07-25T06:45:47.363Z,51.56
2022-07-25T06:48:17.678Z,51.65
2022-07-25T06:50:44.632Z,51.59
2022-07-25T06:53:11.217Z,51.26
2022-07-25T06:55:37.741Z,51.11
2022-07-25T06:58:04.421Z,50.50
2022-07-25T07:00:30.919Z,49.89
2022-07-25T07:03:01.269Z,50.42
2022-07-25T07:05:33.921Z,49.63
2022-07-25T07:08:00.515Z,49.89
2022-07-25T07:10:28.247Z,48.77
2022-07-25T07:13:07.827Z,49.25
2022-07-25T07:15:34.846Z,48.20
2022-07-25T07:18:01.448Z,47.55
2022-07-25T07:20:28.252Z,47.98
2022-07-25T07:22:54.777Z,46.91
2022-07-25T07:25:24.120Z,46.38
2022-07-25T07:27:54.869Z,46.56
2022-07-25T07:30:24.439Z,46.12
2022-07-25T07:32:53.859Z,46.34
2022-07-25T07:35:20.709Z,45.92
2022-07-25T07:37:47.466Z,45.37
2022-07-25T07:40:17.060Z,44.87
2022-07-25T07:42:47.815Z,45.17
2022-07-25T07:45:19.711Z,44.52
2022-07-25T07:47:48.730Z,44.17
2022-07-25T07:50:17.738Z,44.66
2022-07-25T07:52:45.410Z,43.49
2022-07-25T07:55:31.381Z,43.66
2022-07-25T07:57:59.559Z,43.14
2022-07-25T08:00:28.120Z,43.27
2022-07-25T08:02:55.428Z,42.92
2022-07-25T08:05:25.895Z,43.60
2022-07-25T08:07:53.443Z,43.00
2022-07-25T08:10:27.251Z,42.49
2022-07-25T08:12:53.865Z,42.81
2022-07-25T08:15:21.790Z,42.08
2022-07-25T08:17:50.241Z,40.46
2022-07-25T08:20:36.980Z,40.99
2022-07-25T08:23:05.524Z,40.76
2022-07-25T08:25:32.224Z,40.73
2022-07-25T08:27:59.157Z,39.95
2022-07-25T08:30:25.765Z,39.97
2022-07-25T08:33:01.115Z,38.86
2022-07-25T08:35:28.838Z,38.47
2022-07-25T08:37:55.885Z,38.67
2022-07-25T08:40:25.560Z,38.25
2022-07-25T08:42:52.574Z,38.87
2022-07-25T08:45:20.354Z,37.94
2022-07-25T08:47:48.743Z,37.81
2022-07-25T08:50:19.048Z,37.59
2022-07-25T08:52:47.810Z,36.77
2022-07-25T08:55:20.034Z,37.10
2022-07-25T08:57:52.599Z,36.06
2022-07-25T09:00:25.047Z,35.68
2022-07-25T09:02:59.581Z,35.51
2022-07-25T09:05:28.069Z,35.43
2022-07-25T09:07:56.295Z,35.18
2022-07-25T09:10:28.380Z,34.77
2022-07-25T09:12:54.834Z,34.03
2022-07-25T09:15:32.887Z,33.53
2022-07-25T09:18:02.441Z,33.22
2022-07-25T09:20:37.860Z,33.72
2022-07-25T09:23:04.506Z,33.28
2022-07-25T09:25:31.159Z,33.30
2022-07-25T09:28:12.096Z,32.38
2022-07-25T09:30:39.658Z,33.99
2022-07-25T09:33:06.201Z,33.39
2022-07-25T09:35:36.218Z,34.63
2022-07-25T09:38:09.938Z,33.84
2022-07-25T09:40:36.430Z,34.51
2022-07-25T09:43:03.004Z,33.48
2022-07-25T09:45:31.583Z,33.76
2022-07-25T09:48:04.333Z,31.82
2022-07-25T09:50:32.950Z,30.96
2022-07-25T09:53:02.415Z,31.72
2022-07-25T09:55:30.000Z,28.21
2022-07-25T09:57:56.617Z,27.50
2022-07-25T10:00:27.454Z,27.60
2022-07-25T10:03:24.735Z,29.22
2022-07-25T10:06:03.424Z,29.30
2022-07-25T10:08:35.583Z,28.78
2022-07-25T10:11:02.163Z,29.16
2022-07-25T10:13:34.173Z,28.64
2022-07-25T10:16:01.441Z,28.87
2022-07-25T10:18:30.145Z,29.34
2022-07-25T10:21:24.831Z,29.53
2022-07-25T10:24:04.960Z,29.37
2022-07-25T10:26:33.321Z,29.23
2022-07-25T10:29:01.593Z,29.82
2022-07-25T10:31:37.586Z,29.76
2022-07-25T10:34:05.591Z,29.49
2022-07-25T10:36:50.998Z,29.76
2022-07-25T10:39:19.316Z,28.38
2022-07-25T10:41:55.703Z,28.86
2022-07-25T10:44:22.477Z,28.98
2022-07-25T10:46:50.151Z,28.08
2022-07-25T10:49:31.140Z,28.14
2022-07-25T10:52:03.613Z,28.12
2022-07-25T10:54:38.341Z,28.68
2022-07-25T10:57:06.926Z,28.17
2022-07-25T10:59:39.254Z,27.82
2022-07-25T11:02:08.494Z,27.00
2022-07-25T11:04:36.276Z,26.89
2022-07-25T11:07:14.263Z,26.50
2022-07-25T11:09:42.246Z,26.40
2022-07-25T11:12:09.645Z,26.75
2022-07-25T11:14:41.230Z,25.71
2022-07-25T11:17:15.420Z,26.17
2022-07-25T11:19:44.210Z,25.44
2022-07-25T11:22:10.909Z,25.43
2022-07-25T11:24:42.104Z,25.16
2022-07-25T11:27:20.234Z,23.96
2022-07-25T11:29:46.795Z,23.51
2022-07-25T11:32:14.120Z,23.77
2022-07-25T11:34:43.630Z,24.56
2022-07-25T11:37:12.178Z,24.88
2022-07-25T11:39:40.668Z,24.91
2022-07-25T11:42:08.761Z,25.61
2022-07-25T11:44:45.514Z,25.51
2022-07-25T11:47:31.507Z,25.85
2022-07-25T11:50:03.851Z,26.54
2022-07-25T11:52:31.438Z,26.92
2022-07-25T11:55:01.831Z,27.23
2022-07-25T11:57:34.543Z,27.37
2022-07-25T12:00:03.651Z,26.70
2022-07-25T12:02:36.776Z,26.65
2022-07-25T12:05:05.442Z,26.25
2022-07-25T12:07:37.955Z,26.50
2022-07-25T12:10:06.094Z,26.64
2022-07-25T12:12:53.795Z,26.52
2022-07-25T12:15:24.695Z,26.43
2022-07-25T12:17:52.770Z,26.66
2022-07-25T12:20:21.461Z,26.58
2022-07-25T12:22:49.978Z,26.53
2022-07-25T12:25:16.730Z,27.18
2022-07-25T12:27:43.534Z,27.04
2022-07-25T12:30:11.478Z,26.97
2022-07-25T12:32:38.382Z,27.63
2022-07-25T12:35:07.024Z,28.38
2022-07-25T12:37:33.751Z,28.69
2022-07-25T12:40:00.570Z,28.41
2022-07-25T12:42:28.814Z,28.42
2022-07-25T12:44:55.813Z,27.84
2022-07-25T12:47:23.690Z,27.60
2022-07-25T12:49:50.309Z,26.89
2022-07-25T12:52:17.306Z,27.31
2022-07-25T12:54:44.435Z,26.30
2022-07-25T12:57:11.790Z,25.28
2022-07-25T12:59:38.739Z,25.72
2022-07-25T13:02:06.254Z,25.59
2022-07-25T13:04:32.865Z,25.55
2022-07-25T13:06:59.609Z,25.14
2022-07-25T13:09:26.468Z,24.77
2022-07-25T13:11:53.049Z,24.67
2022-07-25T13:14:20.033Z,24.04
2022-07-25T13:16:48.003Z,24.08
2022-07-25T13:19:15.684Z,24.42
2022-07-25T13:21:43.452Z,24.73
2022-07-25T13:24:11.227Z,24.97
2022-07-25T13:26:38.761Z,25.58
2022-07-25T13:29:11.590Z,25.47
2022-07-25T13:31:41.060Z,25.03
2022-07-25T13:34:08.920Z,25.11
2022-07-25T13:36:37.977Z,25.99
2022-07-25T13:39:05.565Z,25.96
2022-07-25T13:41:32.795Z,26.64
2022-07-25T13:43:59.527Z,26.70
2022-07-25T13:46:26.183Z,27.09
2022-07-25T13:48:52.917Z,27.77
2022-07-25T13:51:19.413Z,28.12
2022-07-25T13:53:45.965Z,28.70
2022-07-25T13:56:13.402Z,30.36
2022-07-25T13:58:40.681Z,40.66
2022-07-25T14:01:08.659Z,48.62
2022-07-25T14:03:36.792Z,58.85
2022-07-25T14:06:04.599Z,51.64
2022-07-25T14:08:31.689Z,52.87
2022-07-25T14:10:58.278Z,54.91
2022-07-25T14:13:24.803Z,45.91
2022-07-25T14:15:51.440Z,41.95
2022-07-25T14:18:17.980Z,41.97
2022-07-25T14:20:44.570Z,36.29
2022-07-25T14:23:11.073Z,31.21
2022-07-25T14:25:38.414Z,32.50
2022-07-25T14:28:04.953Z,29.35
2022-07-25T14:30:31.533Z,31.87
2022-07-25T14:32:58.007Z,29.84
2022-07-25T14:35:28.792Z,29.57
2022-07-25T14:37:58.468Z,31.06
2022-07-25T14:40:24.970Z,31.07
2022-07-25T14:42:51.464Z,31.08
2022-07-25T14:45:18.854Z,30.02
2022-07-25T14:47:45.318Z,31.09
2022-07-25T14:50:11.883Z,31.44
2022-07-25T14:52:38.401Z,31.94
2022-07-25T14:55:05.822Z,31.93
2022-07-25T14:57:32.444Z,32.72
2022-07-25T15:00:01.835Z,32.58
2022-07-25T15:02:28.453Z,32.64
2022-07-25T15:04:55.278Z,34.28
2022-07-25T15:07:22.058Z,36.63
2022-07-25T15:09:48.509Z,38.12
2022-07-25T15:12:16.742Z,38.80
2022-07-25T15:14:43.909Z,38.67
2022-07-25T15:17:10.659Z,37.50
2022-07-25T15:19:37.181Z,38.57
2022-07-25T15:22:03.693Z,39.49
2022-07-25T15:24:36.331Z,35.08
2022-07-25T15:27:10.877Z,30.92
2022-07-25T15:29:37.417Z,29.04
2022-07-25T15:32:05.529Z,28.65
2022-07-25T15:34:33.593Z,30.38
2022-07-25T15:37:00.096Z,29.49
2022-07-25T15:39:26.733Z,29.76
2022-07-25T15:41:53.428Z,30.60
2022-07-25T15:44:19.951Z,28.68
2022-07-25T15:46:46.695Z,27.74
2022-07-25T15:49:15.473Z,28.28
2022-07-25T15:51:42.161Z,27.75
2022-07-25T15:54:08.967Z,26.41
2022-07-25T15:56:35.647Z,26.61
2022-07-25T15:59:02.187Z,25.88
2022-07-25T16:01:28.797Z,28.59
2022-07-25T16:03:59.715Z,26.92
2022-07-25T16:06:27.313Z,25.80
2022-07-25T16:08:53.977Z,25.31
2022-07-25T16:11:26.624Z,24.62
2022-07-25T16:13:53.832Z,26.96
2022-07-25T16:16:22.055Z,26.14
2022-07-25T16:18:48.799Z,27.09
2022-07-25T16:21:15.517Z,26.52
2022-07-25T16:23:45.596Z,26.48
2022-07-25T16:26:12.672Z,27.79
2022-07-25T16:28:40.499Z,26.97
2022-07-25T16:31:07.221Z,27.81
2022-07-25T16:33:33.873Z,27.43
2022-07-25T16:36:00.460Z,27.42
2022-07-25T16:38:28.753Z,27.51
2022-07-25T16:40:55.599Z,27.88
2022-07-25T16:43:22.150Z,27.78
2022-07-25T16:45:48.686Z,28.09
2022-07-25T16:48:15.197Z,29.45
2022-07-25T16:50:41.714Z,31.28
2022-07-25T16:53:08.249Z,31.96
2022-07-25T16:55:34.784Z,33.26
2022-07-25T16:58:01.290Z,33.69
2022-07-25T17:00:27.802Z,33.10
2022-07-25T17:02:54.289Z,33.41
2022-07-25T17:05:21.056Z,32.42
2022-07-25T17:07:48.643Z,32.18
2022-07-25T17:10:15.138Z,31.90
2022-07-25T17:12:41.654Z,32.03
2022-07-25T17:15:09.069Z,33.05
2022-07-25T17:17:35.674Z,33.36
2022-07-25T17:20:02.158Z,34.39
2022-07-25T17:22:28.645Z,34.97
2022-07-25T17:24:55.114Z,35.00
2022-07-25T17:27:21.837Z,35.09
2022-07-25T17:29:48.382Z,35.36
2022-07-25T17:32:14.876Z,35.72
2022-07-25T17:34:41.481Z,36.15
2022-07-25T17:37:08.149Z,36.50
2022-07-25T17:39:34.936Z,36.84
2022-07-25T17:42:01.970Z,37.43
2022-07-25T17:44:28.510Z,37.44
2022-07-25T17:46:55.586Z,37.81
2022-07-25T17:49:22.202Z,38.47
2022-07-25T17:51:48.782Z,38.88
2022-07-25T17:54:15.358Z,39.44
2022-07-25T17:56:42.250Z,39.72
2022-07-25T17:59:08.794Z,39.49
2022-07-25T18:01:35.578Z,39.86
2022-07-25T18:04:02.153Z,39.62
2022-07-25T18:06:30.005Z,40.36
2022-07-25T18:08:57.121Z,40.60
2022-07-25T18:11:23.757Z,40.22
2022-07-25T18:13:50.225Z,40.29
2022-07-25T18:16:16.776Z,40.67
2022-07-25T18:18:43.415Z,40.57
2022-07-25T18:21:09.950Z,40.67
2022-07-25T18:23:36.611Z,40.09
2022-07-25T18:26:03.710Z,40.47
2022-07-25T18:28:30.255Z,40.70
2022-07-25T18:30:56.792Z,40.15
2022-07-25T18:33:23.376Z,40.50
2022-07-25T18:35:51.404Z,40.88
2022-07-25T18:38:17.920Z,40.64
2022-07-25T18:40:44.490Z,40.83
2022-07-25T18:43:12.373Z,41.43
2022-07-25T18:45:39.062Z,40.89
2022-07-25T18:48:06.626Z,40.97
2022-07-25T18:50:33.600Z,41.18
2022-07-25T18:53:00.223Z,41.54
2022-07-25T18:55:26.840Z,41.90
2022-07-25T18:57:53.465Z,41.28
2022-07-25T19:00:20.103Z,42.08
2022-07-25T19:02:46.674Z,41.78
2022-07-25T19:05:13.422Z,41.85
2022-07-25T19:07:40.477Z,41.99
2022-07-25T19:10:07.274Z,42.47
2022-07-25T19:12:33.881Z,43.02
2022-07-25T19:15:00.408Z,41.89
2022-07-25T19:17:26.969Z,42.30
2022-07-25T19:19:53.621Z,42.29
2022-07-25T19:22:20.775Z,42.48
2022-07-25T19:24:48.131Z,42.87
2022-07-25T19:27:14.782Z,42.73
2022-07-25T19:29:42.418Z,42.66
2022-07-25T19:32:09.135Z,43.14
2022-07-25T19:34:35.774Z,43.50
2022-07-25T19:37:03.828Z,43.45
2022-07-25T19:39:30.343Z,43.94
2022-07-25T19:41:56.894Z,43.65
2022-07-25T19:44:23.419Z,43.73
2022-07-25T19:46:49.947Z,44.25
2022-07-25T19:49:16.822Z,44.24
2022-07-25T19:51:43.469Z,44.51
2022-07-25T19:54:10.482Z,44.36
2022-07-25T19:56:37.477Z,44.76
2022-07-25T19:59:04.001Z,45.18
2022-07-25T20:01:34.112Z,45.46
2022-07-25T20:04:01.330Z,46.16
2022-07-25T20:06:27.989Z,45.94
2022-07-25T20:08:54.447Z,46.27
2022-07-25T20:11:20.962Z,46.20
2022-07-25T20:13:47.494Z,46.52
2022-07-25T20:16:14.039Z,46.58
2022-07-25T20:18:40.578Z,47.11
2022-07-25T20:21:07.834Z,47.36
2022-07-25T20:23:34.340Z,47.80
2022-07-25T20:26:02.188Z,47.48
2022-07-25T20:28:29.001Z,47.44
2022-07-25T20:30:57.239Z,47.62
2022-07-25T20:33:26.989Z,47.63
2022-07-25T20:35:54.945Z,47.39
2022-07-25T20:38:23.069Z,47.31
2022-07-25T20:40:50.685Z,47.98
2022-07-25T20:43:17.841Z,48.28
2022-07-25T20:45:44.908Z,48.12
2022-07-25T20:48:11.561Z,48.16
2022-07-25T20:50:38.561Z,48.23
2022-07-25T20:53:06.335Z,48.00
2022-07-25T20:55:33.714Z,48.45
2022-07-25T20:58:00.839Z,48.71
2022-07-25T21:00:28.751Z,48.60
2022-07-25T21:02:55.379Z,48.52
2022-07-25T21:05:22.228Z,48.93
2022-07-25T21:07:48.806Z,49.26
2022-07-25T21:10:15.390Z,49.55
2022-07-25T21:12:42.551Z,48.84
2022-07-25T21:15:09.433Z,48.61
2022-07-25T21:17:35.946Z,48.63
2022-07-25T21:20:03.068Z,48.26
2022-07-25T21:22:29.785Z,48.32
2022-07-25T21:24:56.304Z,47.96
2022-07-25T21:27:23.173Z,47.90
2022-07-25T21:29:49.686Z,48.17
2022-07-25T21:32:17.294Z,48.21
2022-07-25T21:34:45.534Z,47.90
2022-07-25T21:37:12.879Z,47.72
2022-07-25T21:39:39.415Z,48.22
2022-07-25T21:42:09.681Z,48.06
2022-07-25T21:44:38.465Z,48.45
2022-07-25T21:47:05.050Z,48.83
2022-07-25T21:49:49.970Z,48.77
2022-07-25T21:52:16.561Z,48.89
2022-07-25T21:54:43.442Z,48.83
2022-07-25T21:57:13.596Z,49.35
2022-07-25T21:59:42.561Z,49.04
2022-07-25T22:02:09.348Z,49.70
2022-07-25T22:04:35.961Z,49.68
2022-07-25T22:07:03.029Z,49.60
2022-07-25T22:09:29.537Z,49.71
2022-07-25T22:11:56.900Z,50.38
2022-07-25T22:14:23.771Z,50.13
2022-07-25T22:16:50.518Z,50.32
2022-07-25T22:19:20.774Z,50.70
2022-07-25T22:21:48.758Z,50.70
2022-07-25T22:24:15.242Z,50.84
2022-07-25T22:26:42.006Z,51.38
2022-07-25T22:29:09.105Z,51.31
2022-07-25T22:31:38.608Z,51.56
2022-07-25T22:34:05.379Z,51.80
2022-07-25T22:36:32.112Z,52.03
2022-07-25T22:38:58.624Z,52.14
2022-07-25T22:41:25.207Z,52.64
2022-07-25T22:43:58.088Z,52.18
2022-07-25T22:46:27.067Z,52.98
2022-07-25T22:48:53.650Z,53.23
2022-07-25T22:51:20.197Z,53.70
2022-07-25T22:53:46.825Z,53.36
2022-07-25T22:56:13.367Z,53.56
2022-07-25T22:58:39.958Z,53.70
2022-07-25T23:01:06.735Z,54.34
2022-07-25T23:03:33.575Z,54.15
2022-07-25T23:06:00.227Z,54.35
2022-07-25T23:08:27.209Z,54.38
2022-07-25T23:10:53.768Z,54.39
2022-07-25T23:13:20.430Z,55.08
2022-07-25T23:15:51.284Z,55.16
2022-07-25T23:18:18.720Z,55.01
2022-07-25T23:20:45.359Z,54.91
2022-07-25T23:23:12.951Z,55.38
2022-07-25T23:25:39.821Z,55.06
2022-07-25T23:28:06.410Z,55.58
2022-07-25T23:30:36.710Z,55.10
2022-07-25T23:33:07.082Z,55.53
2022-07-25T23:35:33.997Z,55.68
2022-07-25T23:38:00.987Z,55.91
2022-07-25T23:40:27.537Z,56.09
2022-07-25T23:42:54.408Z,55.88
2022-07-25T23:45:21.985Z,55.99
2022-07-25T23:47:51.503Z,56.43
2022-07-25T23:50:19.535Z,56.76
2022-07-25T23:52:46.038Z,57.03
2022-07-25T23:55:12.582Z,56.61
2022-07-25T23:57:39.222Z,56.61
